sensor_id;sensor_type;location;lat;lon;timestamp;P1;durP1;ratioP1;P2;durP2;ratioP2
51987;SDS011;38003;52.012;4.346;2023-08-08T00:01:22;6.13;;;2.03;;
51987;SDS011;38003;52.012;4.346;2023-08-08T00:03:50;7.57;;;1.98;;
51987;SDS011;38003;52.012;4.346;2023-08-08T00:06:18;7.07;;;1.90;;
51987;SDS011;38003;52.012;4.346;2023-08-08T00:08:47;4.95;;;2.05;;
51987;SDS011;38003;52.012;4.346;2023-08-08T00:11:15;5.07;;;1.70;;
51987;SDS011;38003;52.012;4.346;2023-08-08T00:13:44;6.10;;;1.85;;
51987;SDS011;38003;52.012;4.346;2023-08-08T00:16:13;3.17;;;1.50;;
51987;SDS011;38003;52.012;4.346;2023-08-08T00:18:41;6.50;;;1.60;;
51987;SDS011;38003;52.012;4.346;2023-08-08T00:21:09;5.03;;;1.60;;
51987;SDS011;38003;52.012;4.346;2023-08-08T00:23:37;5.45;;;1.77;;
51987;SDS011;38003;52.012;4.346;2023-08-08T00:26:06;4.03;;;1.67;;
51987;SDS011;38003;52.012;4.346;2023-08-08T00:28:34;3.67;;;1.52;;
51987;SDS011;38003;52.012;4.346;2023-08-08T00:31:03;2.50;;;1.50;;
51987;SDS011;38003;52.012;4.346;2023-08-08T00:33:32;3.53;;;1.63;;
51987;SDS011;38003;52.012;4.346;2023-08-08T00:36:00;3.58;;;1.50;;
51987;SDS011;38003;52.012;4.346;2023-08-08T00:38:28;4.28;;;1.50;;
51987;SDS011;38003;52.012;4.346;2023-08-08T00:40:56;2.72;;;1.45;;
51987;SDS011;38003;52.012;4.346;2023-08-08T00:43:25;2.93;;;1.30;;
51987;SDS011;38003;52.012;4.346;2023-08-08T00:45:53;4.13;;;1.80;;
51987;SDS011;38003;52.012;4.346;2023-08-08T00:48:23;5.32;;;1.70;;
51987;SDS011;38003;52.012;4.346;2023-08-08T00:50:52;3.72;;;1.63;;
51987;SDS011;38003;52.012;4.346;2023-08-08T00:53:20;3.03;;;1.50;;
51987;SDS011;38003;52.012;4.346;2023-08-08T00:55:53;5.40;;;1.70;;
51987;SDS011;38003;52.012;4.346;2023-08-08T00:58:21;3.83;;;1.40;;
51987;SDS011;38003;52.012;4.346;2023-08-08T01:00:49;3.67;;;1.52;;
51987;SDS011;38003;52.012;4.346;2023-08-08T01:03:18;5.15;;;2.10;;
51987;SDS011;38003;52.012;4.346;2023-08-08T01:05:51;4.07;;;1.77;;
51987;SDS011;38003;52.012;4.346;2023-08-08T01:08:22;3.53;;;1.63;;
51987;SDS011;38003;52.012;4.346;2023-08-08T01:10:51;6.07;;;1.63;;
51987;SDS011;38003;52.012;4.346;2023-08-08T01:13:21;3.58;;;1.40;;
51987;SDS011;38003;52.012;4.346;2023-08-08T01:15:50;2.10;;;1.35;;
51987;SDS011;38003;52.012;4.346;2023-08-08T01:18:18;5.18;;;1.98;;
51987;SDS011;38003;52.012;4.346;2023-08-08T01:20:47;4.15;;;1.80;;
51987;SDS011;38003;52.012;4.346;2023-08-08T01:23:18;4.53;;;1.60;;
51987;SDS011;38003;52.012;4.346;2023-08-08T01:25:48;3.53;;;1.45;;
51987;SDS011;38003;52.012;4.346;2023-08-08T01:28:20;4.75;;;1.58;;
51987;SDS011;38003;52.012;4.346;2023-08-08T01:30:48;4.00;;;1.40;;
51987;SDS011;38003;52.012;4.346;2023-08-08T01:33:17;6.50;;;1.73;;
51987;SDS011;38003;52.012;4.346;2023-08-08T01:35:46;6.68;;;1.70;;
51987;SDS011;38003;52.012;4.346;2023-08-08T01:38:17;7.70;;;1.50;;
51987;SDS011;38003;52.012;4.346;2023-08-08T01:40:45;2.93;;;1.33;;
51987;SDS011;38003;52.012;4.346;2023-08-08T01:43:16;4.33;;;1.40;;
51987;SDS011;38003;52.012;4.346;2023-08-08T01:45:44;3.33;;;1.30;;
51987;SDS011;38003;52.012;4.346;2023-08-08T01:48:12;4.57;;;1.33;;
51987;SDS011;38003;52.012;4.346;2023-08-08T01:50:41;4.43;;;1.20;;
51987;SDS011;38003;52.012;4.346;2023-08-08T01:53:09;5.07;;;1.30;;
51987;SDS011;38003;52.012;4.346;2023-08-08T01:55:37;2.80;;;1.08;;
51987;SDS011;38003;52.012;4.346;2023-08-08T01:58:05;3.35;;;1.10;;
51987;SDS011;38003;52.012;4.346;2023-08-08T02:00:35;3.53;;;1.15;;
51987;SDS011;38003;52.012;4.346;2023-08-08T02:03:04;4.68;;;1.42;;
51987;SDS011;38003;52.012;4.346;2023-08-08T02:05:32;3.70;;;1.30;;
51987;SDS011;38003;52.012;4.346;2023-08-08T02:08:00;3.43;;;1.17;;
51987;SDS011;38003;52.012;4.346;2023-08-08T02:10:29;4.00;;;1.20;;
51987;SDS011;38003;52.012;4.346;2023-08-08T02:12:58;4.30;;;1.30;;
51987;SDS011;38003;52.012;4.346;2023-08-08T02:15:26;5.07;;;1.53;;
51987;SDS011;38003;52.012;4.346;2023-08-08T02:17:55;4.27;;;1.10;;
51987;SDS011;38003;52.012;4.346;2023-08-08T02:20:24;3.17;;;1.40;;
51987;SDS011;38003;52.012;4.346;2023-08-08T02:22:52;5.43;;;1.33;;
51987;SDS011;38003;52.012;4.346;2023-08-08T02:25:20;4.65;;;1.20;;
51987;SDS011;38003;52.012;4.346;2023-08-08T02:27:48;3.37;;;1.17;;
51987;SDS011;38003;52.012;4.346;2023-08-08T02:30:16;6.47;;;1.50;;
51987;SDS011;38003;52.012;4.346;2023-08-08T02:32:45;4.07;;;1.10;;
51987;SDS011;38003;52.012;4.346;2023-08-08T02:35:14;4.82;;;1.20;;
51987;SDS011;38003;52.012;4.346;2023-08-08T02:37:42;3.43;;;1.00;;
51987;SDS011;38003;52.012;4.346;2023-08-08T02:40:11;2.50;;;0.90;;
51987;SDS011;38003;52.012;4.346;2023-08-08T02:42:39;3.58;;;1.27;;
51987;SDS011;38003;52.012;4.346;2023-08-08T02:45:07;2.65;;;0.98;;
51987;SDS011;38003;52.012;4.346;2023-08-08T02:47:36;4.73;;;0.90;;
51987;SDS011;38003;52.012;4.346;2023-08-08T02:50:04;2.58;;;0.90;;
51987;SDS011;38003;52.012;4.346;2023-08-08T02:52:34;2.13;;;0.90;;
51987;SDS011;38003;52.012;4.346;2023-08-08T02:55:03;3.20;;;1.05;;
51987;SDS011;38003;52.012;4.346;2023-08-08T02:57:31;6.23;;;1.00;;
51987;SDS011;38003;52.012;4.346;2023-08-08T02:59:59;3.97;;;0.93;;
51987;SDS011;38003;52.012;4.346;2023-08-08T03:02:28;3.78;;;1.00;;
51987;SDS011;38003;52.012;4.346;2023-08-08T03:04:56;4.50;;;1.23;;
51987;SDS011;38003;52.012;4.346;2023-08-08T03:07:25;3.53;;;1.13;;
51987;SDS011;38003;52.012;4.346;2023-08-08T03:09:54;3.47;;;1.10;;
51987;SDS011;38003;52.012;4.346;2023-08-08T03:12:22;2.10;;;0.90;;
51987;SDS011;38003;52.012;4.346;2023-08-08T03:14:51;3.60;;;1.10;;
51987;SDS011;38003;52.012;4.346;2023-08-08T03:17:19;3.33;;;1.10;;
51987;SDS011;38003;52.012;4.346;2023-08-08T03:19:47;2.85;;;0.98;;
51987;SDS011;38003;52.012;4.346;2023-08-08T03:22:15;3.23;;;1.30;;
51987;SDS011;38003;52.012;4.346;2023-08-08T03:24:44;3.53;;;1.00;;
51987;SDS011;38003;52.012;4.346;2023-08-08T03:27:13;2.53;;;1.07;;
51987;SDS011;38003;52.012;4.346;2023-08-08T03:29:42;4.57;;;1.40;;
51987;SDS011;38003;52.012;4.346;2023-08-08T03:32:10;4.30;;;1.20;;
51987;SDS011;38003;52.012;4.346;2023-08-08T03:34:38;3.33;;;1.10;;
51987;SDS011;38003;52.012;4.346;2023-08-08T03:37:06;2.10;;;1.30;;
51987;SDS011;38003;52.012;4.346;2023-08-08T03:39:34;2.17;;;1.00;;
51987;SDS011;38003;52.012;4.346;2023-08-08T03:42:03;3.00;;;1.37;;
51987;SDS011;38003;52.012;4.346;2023-08-08T03:44:33;2.08;;;0.98;;
51987;SDS011;38003;52.012;4.346;2023-08-08T03:47:01;4.43;;;1.00;;
51987;SDS011;38003;52.012;4.346;2023-08-08T03:49:44;4.57;;;1.30;;
51987;SDS011;38003;52.012;4.346;2023-08-08T03:52:12;3.90;;;0.90;;
51987;SDS011;38003;52.012;4.346;2023-08-08T03:54:42;5.73;;;1.20;;
51987;SDS011;38003;52.012;4.346;2023-08-08T03:57:11;2.00;;;1.00;;
51987;SDS011;38003;52.012;4.346;2023-08-08T03:59:40;3.07;;;1.10;;
51987;SDS011;38003;52.012;4.346;2023-08-08T04:02:09;5.57;;;1.10;;
51987;SDS011;38003;52.012;4.346;2023-08-08T04:04:37;2.90;;;1.20;;
51987;SDS011;38003;52.012;4.346;2023-08-08T04:07:06;3.13;;;1.07;;
51987;SDS011;38003;52.012;4.346;2023-08-08T04:09:34;1.90;;;1.10;;
51987;SDS011;38003;52.012;4.346;2023-08-08T04:12:02;5.55;;;0.98;;
51987;SDS011;38003;52.012;4.346;2023-08-08T04:14:30;4.77;;;1.60;;
51987;SDS011;38003;52.012;4.346;2023-08-08T04:17:00;2.90;;;1.00;;
51987;SDS011;38003;52.012;4.346;2023-08-08T04:19:29;3.27;;;1.10;;
51987;SDS011;38003;52.012;4.346;2023-08-08T04:21:57;2.23;;;1.00;;
51987;SDS011;38003;52.012;4.346;2023-08-08T04:24:26;3.10;;;0.93;;
51987;SDS011;38003;52.012;4.346;2023-08-08T04:26:54;4.27;;;1.10;;
51987;SDS011;38003;52.012;4.346;2023-08-08T04:29:22;3.83;;;0.93;;
51987;SDS011;38003;52.012;4.346;2023-08-08T04:31:50;5.87;;;1.40;;
51987;SDS011;38003;52.012;4.346;2023-08-08T04:34:20;2.90;;;0.83;;
51987;SDS011;38003;52.012;4.346;2023-08-08T04:36:49;3.17;;;0.90;;
51987;SDS011;38003;52.012;4.346;2023-08-08T04:39:17;1.73;;;0.80;;
51987;SDS011;38003;52.012;4.346;2023-08-08T04:41:45;3.80;;;1.00;;
51987;SDS011;38003;52.012;4.346;2023-08-08T04:44:13;4.87;;;1.17;;
51987;SDS011;38003;52.012;4.346;2023-08-08T04:46:42;3.10;;;1.10;;
51987;SDS011;38003;52.012;4.346;2023-08-08T04:49:10;3.07;;;1.07;;
51987;SDS011;38003;52.012;4.346;2023-08-08T04:51:39;2.63;;;1.10;;
51987;SDS011;38003;52.012;4.346;2023-08-08T04:54:08;2.80;;;1.00;;
51987;SDS011;38003;52.012;4.346;2023-08-08T04:56:36;4.60;;;1.10;;
51987;SDS011;38003;52.012;4.346;2023-08-08T04:59:04;4.50;;;1.00;;
51987;SDS011;38003;52.012;4.346;2023-08-08T05:01:33;6.57;;;1.03;;
51987;SDS011;38003;52.012;4.346;2023-08-08T05:04:01;2.83;;;0.70;;
51987;SDS011;38003;52.012;4.346;2023-08-08T05:06:30;4.00;;;1.07;;
51987;SDS011;38003;52.012;4.346;2023-08-08T05:08:59;2.53;;;1.07;;
51987;SDS011;38003;52.012;4.346;2023-08-08T05:11:28;3.10;;;0.80;;
51987;SDS011;38003;52.012;4.346;2023-08-08T05:13:56;3.07;;;0.70;;
51987;SDS011;38003;52.012;4.346;2023-08-08T05:16:24;3.30;;;0.90;;
51987;SDS011;38003;52.012;4.346;2023-08-08T05:18:52;1.77;;;0.87;;
51987;SDS011;38003;52.012;4.346;2023-08-08T05:21:21;3.90;;;1.00;;
51987;SDS011;38003;52.012;4.346;2023-08-08T05:23:49;2.80;;;0.83;;
51987;SDS011;38003;52.012;4.346;2023-08-08T05:26:19;4.13;;;0.70;;
51987;SDS011;38003;52.012;4.346;2023-08-08T05:28:47;2.20;;;1.17;;
51987;SDS011;38003;52.012;4.346;2023-08-08T05:31:15;6.20;;;1.00;;
51987;SDS011;38003;52.012;4.346;2023-08-08T05:33:44;2.53;;;1.10;;
51987;SDS011;38003;52.012;4.346;2023-08-08T05:36:12;3.30;;;1.00;;
51987;SDS011;38003;52.012;4.346;2023-08-08T05:38:40;2.50;;;0.90;;
51987;SDS011;38003;52.012;4.346;2023-08-08T05:41:08;2.20;;;0.80;;
51987;SDS011;38003;52.012;4.346;2023-08-08T05:43:38;2.40;;;0.87;;
51987;SDS011;38003;52.012;4.346;2023-08-08T05:46:06;3.33;;;0.90;;
51987;SDS011;38003;52.012;4.346;2023-08-08T05:48:34;3.57;;;0.90;;
51987;SDS011;38003;52.012;4.346;2023-08-08T05:51:03;4.10;;;0.80;;
51987;SDS011;38003;52.012;4.346;2023-08-08T05:53:31;2.27;;;0.80;;
51987;SDS011;38003;52.012;4.346;2023-08-08T05:55:59;1.77;;;0.70;;
51987;SDS011;38003;52.012;4.346;2023-08-08T05:58:28;2.53;;;0.80;;
51987;SDS011;38003;52.012;4.346;2023-08-08T06:00:57;6.50;;;0.70;;
51987;SDS011;38003;52.012;4.346;2023-08-08T06:03:25;2.03;;;0.70;;
51987;SDS011;38003;52.012;4.346;2023-08-08T06:05:54;4.73;;;0.63;;
51987;SDS011;38003;52.012;4.346;2023-08-08T06:08:22;5.50;;;0.70;;
51987;SDS011;38003;52.012;4.346;2023-08-08T06:10:50;1.10;;;0.60;;
51987;SDS011;38003;52.012;4.346;2023-08-08T06:13:19;2.37;;;1.10;;
51987;SDS011;38003;52.012;4.346;2023-08-08T06:15:47;3.13;;;0.80;;
51987;SDS011;38003;52.012;4.346;2023-08-08T06:18:17;2.60;;;1.17;;
51987;SDS011;38003;52.012;4.346;2023-08-08T06:20:45;3.37;;;0.60;;
51987;SDS011;38003;52.012;4.346;2023-08-08T06:23:13;1.93;;;0.80;;
51987;SDS011;38003;52.012;4.346;2023-08-08T06:25:42;2.83;;;0.77;;
51987;SDS011;38003;52.012;4.346;2023-08-08T06:28:10;3.03;;;1.00;;
51987;SDS011;38003;52.012;4.346;2023-08-08T06:30:38;1.23;;;0.70;;
51987;SDS011;38003;52.012;4.346;2023-08-08T06:33:06;2.40;;;0.70;;
51987;SDS011;38003;52.012;4.346;2023-08-08T06:35:36;3.03;;;0.63;;
51987;SDS011;38003;52.012;4.346;2023-08-08T06:38:05;2.80;;;0.83;;
51987;SDS011;38003;52.012;4.346;2023-08-08T06:40:33;3.37;;;0.77;;
51987;SDS011;38003;52.012;4.346;2023-08-08T06:43:01;2.83;;;0.83;;
51987;SDS011;38003;52.012;4.346;2023-08-08T06:45:30;4.30;;;0.90;;
51987;SDS011;38003;52.012;4.346;2023-08-08T06:47:58;1.67;;;0.60;;
51987;SDS011;38003;52.012;4.346;2023-08-08T06:50:26;3.03;;;0.93;;
51987;SDS011;38003;52.012;4.346;2023-08-08T06:52:56;2.03;;;0.70;;
51987;SDS011;38003;52.012;4.346;2023-08-08T06:55:24;3.00;;;0.60;;
51987;SDS011;38003;52.012;4.346;2023-08-08T06:57:52;3.47;;;0.87;;
51987;SDS011;38003;52.012;4.346;2023-08-08T07:00:20;6.43;;;0.90;;
51987;SDS011;38003;52.012;4.346;2023-08-08T07:02:49;2.23;;;0.80;;
51987;SDS011;38003;52.012;4.346;2023-08-08T07:05:17;3.73;;;0.90;;
51987;SDS011;38003;52.012;4.346;2023-08-08T07:07:45;3.20;;;0.67;;
51987;SDS011;38003;52.012;4.346;2023-08-08T07:10:15;2.70;;;0.70;;
51987;SDS011;38003;52.012;4.346;2023-08-08T07:12:43;4.50;;;0.90;;
51987;SDS011;38003;52.012;4.346;2023-08-08T07:15:12;6.00;;;1.00;;
51987;SDS011;38003;52.012;4.346;2023-08-08T07:17:40;2.60;;;0.63;;
51987;SDS011;38003;52.012;4.346;2023-08-08T07:20:09;2.67;;;0.70;;
51987;SDS011;38003;52.012;4.346;2023-08-08T07:22:40;4.80;;;1.00;;
51987;SDS011;38003;52.012;4.346;2023-08-08T07:25:08;4.23;;;0.70;;
51987;SDS011;38003;52.012;4.346;2023-08-08T07:27:38;1.53;;;0.60;;
51987;SDS011;38003;52.012;4.346;2023-08-08T07:30:07;5.70;;;0.80;;
51987;SDS011;38003;52.012;4.346;2023-08-08T07:32:35;1.90;;;0.80;;
51987;SDS011;38003;52.012;4.346;2023-08-08T07:35:04;2.80;;;0.80;;
51987;SDS011;38003;52.012;4.346;2023-08-08T07:37:34;2.97;;;0.70;;
51987;SDS011;38003;52.012;4.346;2023-08-08T07:40:03;3.23;;;0.90;;
51987;SDS011;38003;52.012;4.346;2023-08-08T07:42:42;3.47;;;0.93;;
51987;SDS011;38003;52.012;4.346;2023-08-08T07:45:10;3.23;;;0.87;;
51987;SDS011;38003;52.012;4.346;2023-08-08T07:47:38;4.30;;;0.70;;
51987;SDS011;38003;52.012;4.346;2023-08-08T07:50:07;2.33;;;0.60;;
51987;SDS011;38003;52.012;4.346;2023-08-08T07:52:35;3.37;;;0.80;;
51987;SDS011;38003;52.012;4.346;2023-08-08T07:55:04;3.67;;;0.93;;
51987;SDS011;38003;52.012;4.346;2023-08-08T07:57:32;2.23;;;0.83;;
51987;SDS011;38003;52.012;4.346;2023-08-08T08:00:03;3.80;;;1.10;;
51987;SDS011;38003;52.012;4.346;2023-08-08T08:02:35;4.70;;;1.00;;
51987;SDS011;38003;52.012;4.346;2023-08-08T08:05:04;3.23;;;0.80;;
51987;SDS011;38003;52.012;4.346;2023-08-08T08:07:34;3.27;;;1.00;;
51987;SDS011;38003;52.012;4.346;2023-08-08T08:10:02;2.80;;;0.97;;
51987;SDS011;38003;52.012;4.346;2023-08-08T08:12:31;4.83;;;1.10;;
51987;SDS011;38003;52.012;4.346;2023-08-08T08:14:59;3.00;;;0.80;;
51987;SDS011;38003;52.012;4.346;2023-08-08T08:17:28;1.77;;;0.80;;
51987;SDS011;38003;52.012;4.346;2023-08-08T08:19:57;3.10;;;1.00;;
51987;SDS011;38003;52.012;4.346;2023-08-08T08:22:25;7.43;;;1.40;;
51987;SDS011;38003;52.012;4.346;2023-08-08T08:24:54;3.23;;;0.90;;
51987;SDS011;38003;52.012;4.346;2023-08-08T08:27:22;2.90;;;1.20;;
51987;SDS011;38003;52.012;4.346;2023-08-08T08:29:50;2.87;;;1.10;;
51987;SDS011;38003;52.012;4.346;2023-08-08T08:32:18;3.10;;;1.10;;
51987;SDS011;38003;52.012;4.346;2023-08-08T08:34:48;3.33;;;0.90;;
51987;SDS011;38003;52.012;4.346;2023-08-08T08:37:16;3.10;;;1.10;;
51987;SDS011;38003;52.012;4.346;2023-08-08T08:39:44;2.13;;;0.97;;
51987;SDS011;38003;52.012;4.346;2023-08-08T08:42:13;2.30;;;0.80;;
51987;SDS011;38003;52.012;4.346;2023-08-08T08:44:42;1.60;;;0.70;;
51987;SDS011;38003;52.012;4.346;2023-08-08T08:47:11;2.43;;;0.90;;
51987;SDS011;38003;52.012;4.346;2023-08-08T08:49:40;2.07;;;0.93;;
51987;SDS011;38003;52.012;4.346;2023-08-08T08:52:13;2.10;;;0.80;;
51987;SDS011;38003;52.012;4.346;2023-08-08T08:54:41;2.57;;;0.90;;
51987;SDS011;38003;52.012;4.346;2023-08-08T08:57:10;1.20;;;0.70;;
51987;SDS011;38003;52.012;4.346;2023-08-08T08:59:38;2.70;;;1.00;;
51987;SDS011;38003;52.012;4.346;2023-08-08T09:02:07;2.67;;;0.87;;
51987;SDS011;38003;52.012;4.346;2023-08-08T09:04:36;3.27;;;0.90;;
51987;SDS011;38003;52.012;4.346;2023-08-08T09:07:05;2.20;;;0.80;;
51987;SDS011;38003;52.012;4.346;2023-08-08T09:09:36;3.97;;;0.85;;
51987;SDS011;38003;52.012;4.346;2023-08-08T09:12:04;1.53;;;0.60;;
51987;SDS011;38003;52.012;4.346;2023-08-08T09:14:32;2.43;;;1.20;;
51987;SDS011;38003;52.012;4.346;2023-08-08T09:17:01;2.35;;;0.80;;
51987;SDS011;38003;52.012;4.346;2023-08-08T09:19:29;1.77;;;0.60;;
51987;SDS011;38003;52.012;4.346;2023-08-08T09:21:57;2.37;;;0.70;;
51987;SDS011;38003;52.012;4.346;2023-08-08T09:24:26;3.47;;;0.80;;
51987;SDS011;38003;52.012;4.346;2023-08-08T09:26:56;3.40;;;0.93;;
51987;SDS011;38003;52.012;4.346;2023-08-08T09:29:24;1.67;;;0.70;;
51987;SDS011;38003;52.012;4.346;2023-08-08T09:31:52;1.87;;;0.70;;
51987;SDS011;38003;52.012;4.346;2023-08-08T09:34:23;2.53;;;1.20;;
51987;SDS011;38003;52.012;4.346;2023-08-08T09:36:52;2.03;;;0.77;;
51987;SDS011;38003;52.012;4.346;2023-08-08T09:39:20;1.95;;;0.80;;
51987;SDS011;38003;52.012;4.346;2023-08-08T09:41:49;1.90;;;0.80;;
51987;SDS011;38003;52.012;4.346;2023-08-08T09:44:22;2.97;;;0.68;;
51987;SDS011;38003;52.012;4.346;2023-08-08T09:46:50;2.17;;;0.60;;
51987;SDS011;38003;52.012;4.346;2023-08-08T09:49:19;2.47;;;0.70;;
51987;SDS011;38003;52.012;4.346;2023-08-08T09:51:49;2.45;;;0.98;;
51987;SDS011;38003;52.012;4.346;2023-08-08T09:54:17;3.55;;;0.80;;
51987;SDS011;38003;52.012;4.346;2023-08-08T09:56:46;3.77;;;1.03;;
51987;SDS011;38003;52.012;4.346;2023-08-08T09:59:16;2.13;;;1.00;;
51987;SDS011;38003;52.012;4.346;2023-08-08T10:01:46;3.75;;;0.80;;
51987;SDS011;38003;52.012;4.346;2023-08-08T10:04:15;2.23;;;0.80;;
51987;SDS011;38003;52.012;4.346;2023-08-08T10:06:44;1.23;;;0.73;;
51987;SDS011;38003;52.012;4.346;2023-08-08T10:09:12;2.35;;;0.70;;
51987;SDS011;38003;52.012;4.346;2023-08-08T10:11:40;2.40;;;0.90;;
51987;SDS011;38003;52.012;4.346;2023-08-08T10:14:10;1.40;;;0.90;;
51987;SDS011;38003;52.012;4.346;2023-08-08T10:16:41;2.40;;;0.90;;
51987;SDS011;38003;52.012;4.346;2023-08-08T10:19:13;3.53;;;0.90;;
51987;SDS011;38003;52.012;4.346;2023-08-08T10:21:43;1.80;;;0.90;;
51987;SDS011;38003;52.012;4.346;2023-08-08T10:24:12;3.03;;;1.00;;
51987;SDS011;38003;52.012;4.346;2023-08-08T10:26:52;3.60;;;0.93;;
51987;SDS011;38003;52.012;4.346;2023-08-08T10:29:24;4.13;;;1.02;;
51987;SDS011;38003;52.012;4.346;2023-08-08T10:31:53;6.20;;;1.10;;
51987;SDS011;38003;52.012;4.346;2023-08-08T10:34:26;2.67;;;1.07;;
51987;SDS011;38003;52.012;4.346;2023-08-08T10:36:55;2.73;;;1.10;;
51987;SDS011;38003;52.012;4.346;2023-08-08T10:39:25;3.92;;;1.10;;
51987;SDS011;38003;52.012;4.346;2023-08-08T10:41:53;4.28;;;0.88;;
51987;SDS011;38003;52.012;4.346;2023-08-08T10:44:24;2.95;;;0.90;;
51987;SDS011;38003;52.012;4.346;2023-08-08T10:46:52;3.20;;;0.88;;
51987;SDS011;38003;52.012;4.346;2023-08-08T10:49:25;1.40;;;0.90;;
51987;SDS011;38003;52.012;4.346;2023-08-08T10:51:53;2.20;;;0.68;;
51987;SDS011;38003;52.012;4.346;2023-08-08T10:54:22;2.33;;;0.82;;
51987;SDS011;38003;52.012;4.346;2023-08-08T10:56:54;1.45;;;0.70;;
51987;SDS011;38003;52.012;4.346;2023-08-08T10:59:23;2.10;;;0.60;;
51987;SDS011;38003;52.012;4.346;2023-08-08T11:01:52;2.95;;;0.93;;
51987;SDS011;38003;52.012;4.346;2023-08-08T11:04:24;3.45;;;0.88;;
51987;SDS011;38003;52.012;4.346;2023-08-08T11:06:53;4.55;;;1.02;;
51987;SDS011;38003;52.012;4.346;2023-08-08T11:09:21;1.50;;;0.70;;
51987;SDS011;38003;52.012;4.346;2023-08-08T11:11:50;4.50;;;1.05;;
51987;SDS011;38003;52.012;4.346;2023-08-08T11:14:19;3.08;;;0.85;;
51987;SDS011;38003;52.012;4.346;2023-08-08T11:16:48;2.20;;;0.80;;
51987;SDS011;38003;52.012;4.346;2023-08-08T11:19:18;1.77;;;0.65;;
51987;SDS011;38003;52.012;4.346;2023-08-08T11:21:47;2.30;;;0.80;;
51987;SDS011;38003;52.012;4.346;2023-08-08T11:24:16;1.77;;;0.70;;
51987;SDS011;38003;52.012;4.346;2023-08-08T11:26:44;1.10;;;0.90;;
51987;SDS011;38003;52.012;4.346;2023-08-08T11:29:14;3.95;;;0.85;;
51987;SDS011;38003;52.012;4.346;2023-08-08T11:31:42;4.55;;;1.00;;
51987;SDS011;38003;52.012;4.346;2023-08-08T11:34:10;2.70;;;0.88;;
51987;SDS011;38003;52.012;4.346;2023-08-08T11:36:39;2.28;;;0.80;;
51987;SDS011;38003;52.012;4.346;2023-08-08T11:39:08;3.47;;;0.90;;
51987;SDS011;38003;52.012;4.346;2023-08-08T11:41:37;3.42;;;0.80;;
51987;SDS011;38003;52.012;4.346;2023-08-08T11:44:07;4.47;;;0.80;;
51987;SDS011;38003;52.012;4.346;2023-08-08T11:46:42;6.07;;;0.88;;
51987;SDS011;38003;52.012;4.346;2023-08-08T11:49:11;5.35;;;1.00;;
51987;SDS011;38003;52.012;4.346;2023-08-08T11:51:42;4.72;;;0.98;;
51987;SDS011;38003;52.012;4.346;2023-08-08T11:54:12;3.17;;;1.05;;
51987;SDS011;38003;52.012;4.346;2023-08-08T11:56:41;5.18;;;0.80;;
51987;SDS011;38003;52.012;4.346;2023-08-08T11:59:09;4.20;;;0.77;;
51987;SDS011;38003;52.012;4.346;2023-08-08T12:01:38;4.68;;;0.93;;
51987;SDS011;38003;52.012;4.346;2023-08-08T12:04:07;4.60;;;0.80;;
51987;SDS011;38003;52.012;4.346;2023-08-08T12:06:36;7.95;;;1.10;;
51987;SDS011;38003;52.012;4.346;2023-08-08T12:09:05;3.90;;;1.35;;
51987;SDS011;38003;52.012;4.346;2023-08-08T12:11:35;3.25;;;1.02;;
51987;SDS011;38003;52.012;4.346;2023-08-08T12:14:04;2.70;;;0.98;;
51987;SDS011;38003;52.012;4.346;2023-08-08T12:16:32;2.17;;;0.70;;
51987;SDS011;38003;52.012;4.346;2023-08-08T12:19:01;5.82;;;1.00;;
51987;SDS011;38003;52.012;4.346;2023-08-08T12:21:29;2.05;;;1.13;;
51987;SDS011;38003;52.012;4.346;2023-08-08T12:23:59;3.05;;;1.30;;
51987;SDS011;38003;52.012;4.346;2023-08-08T12:26:27;2.30;;;0.85;;
51987;SDS011;38003;52.012;4.346;2023-08-08T12:28:57;1.77;;;0.75;;
51987;SDS011;38003;52.012;4.346;2023-08-08T12:31:25;3.72;;;0.82;;
51987;SDS011;38003;52.012;4.346;2023-08-08T12:33:53;2.30;;;0.75;;
51987;SDS011;38003;52.012;4.346;2023-08-08T12:36:22;3.45;;;1.00;;
51987;SDS011;38003;52.012;4.346;2023-08-08T12:38:50;3.33;;;0.80;;
51987;SDS011;38003;52.012;4.346;2023-08-08T12:41:18;2.90;;;1.05;;
51987;SDS011;38003;52.012;4.346;2023-08-08T12:43:46;2.13;;;1.08;;
51987;SDS011;38003;52.012;4.346;2023-08-08T12:46:17;4.57;;;1.10;;
51987;SDS011;38003;52.012;4.346;2023-08-08T12:48:45;7.00;;;1.35;;
51987;SDS011;38003;52.012;4.346;2023-08-08T12:51:13;3.97;;;1.15;;
51987;SDS011;38003;52.012;4.346;2023-08-08T12:53:43;2.85;;;0.90;;
51987;SDS011;38003;52.012;4.346;2023-08-08T12:56:11;4.35;;;1.67;;
51987;SDS011;38003;52.012;4.346;2023-08-08T12:58:39;4.15;;;1.10;;
51987;SDS011;38003;52.012;4.346;2023-08-08T13:01:08;1.92;;;0.88;;
51987;SDS011;38003;52.012;4.346;2023-08-08T13:03:38;5.03;;;0.77;;
51987;SDS011;38003;52.012;4.346;2023-08-08T13:06:13;4.47;;;1.33;;
51987;SDS011;38003;52.012;4.346;2023-08-08T13:08:41;3.03;;;1.17;;
51987;SDS011;38003;52.012;4.346;2023-08-08T13:11:09;5.85;;;1.00;;
51987;SDS011;38003;52.012;4.346;2023-08-08T13:13:38;2.63;;;1.00;;
51987;SDS011;38003;52.012;4.346;2023-08-08T13:16:06;3.42;;;1.30;;
51987;SDS011;38003;52.012;4.346;2023-08-08T13:18:34;2.03;;;0.95;;
51987;SDS011;38003;52.012;4.346;2023-08-08T13:21:04;4.68;;;1.35;;
51987;SDS011;38003;52.012;4.346;2023-08-08T13:23:34;1.80;;;0.93;;
51987;SDS011;38003;52.012;4.346;2023-08-08T13:26:02;4.22;;;1.10;;
51987;SDS011;38003;52.012;4.346;2023-08-08T13:28:30;3.10;;;1.40;;
51987;SDS011;38003;52.012;4.346;2023-08-08T13:30:58;2.65;;;1.13;;
51987;SDS011;38003;52.012;4.346;2023-08-08T13:33:27;5.47;;;1.40;;
51987;SDS011;38003;52.012;4.346;2023-08-08T13:35:55;2.95;;;1.00;;
51987;SDS011;38003;52.012;4.346;2023-08-08T13:38:25;4.65;;;1.20;;
51987;SDS011;38003;52.012;4.346;2023-08-08T13:40:53;2.85;;;1.20;;
51987;SDS011;38003;52.012;4.346;2023-08-08T13:43:21;3.88;;;1.25;;
51987;SDS011;38003;52.012;4.346;2023-08-08T13:45:50;2.90;;;1.13;;
51987;SDS011;38003;52.012;4.346;2023-08-08T13:48:18;3.58;;;1.40;;
51987;SDS011;38003;52.012;4.346;2023-08-08T13:50:46;4.00;;;1.23;;
51987;SDS011;38003;52.012;4.346;2023-08-08T13:53:15;4.80;;;1.17;;
51987;SDS011;38003;52.012;4.346;2023-08-08T13:55:44;4.07;;;1.58;;
51987;SDS011;38003;52.012;4.346;2023-08-08T13:58:13;3.58;;;1.27;;
51987;SDS011;38003;52.012;4.346;2023-08-08T14:00:41;2.38;;;1.20;;
51987;SDS011;38003;52.012;4.346;2023-08-08T14:03:09;3.38;;;1.15;;
51987;SDS011;38003;52.012;4.346;2023-08-08T14:05:40;3.10;;;1.40;;
51987;SDS011;38003;52.012;4.346;2023-08-08T14:08:08;1.70;;;0.90;;
51987;SDS011;38003;52.012;4.346;2023-08-08T14:10:37;4.20;;;1.20;;
51987;SDS011;38003;52.012;4.346;2023-08-08T14:13:06;4.28;;;1.30;;
51987;SDS011;38003;52.012;4.346;2023-08-08T14:15:34;2.35;;;1.45;;
51987;SDS011;38003;52.012;4.346;2023-08-08T14:18:03;3.78;;;1.23;;
51987;SDS011;38003;52.012;4.346;2023-08-08T14:20:31;3.17;;;1.20;;
51987;SDS011;38003;52.012;4.346;2023-08-08T14:23:00;2.72;;;1.10;;
51987;SDS011;38003;52.012;4.346;2023-08-08T14:25:28;3.47;;;1.30;;
51987;SDS011;38003;52.012;4.346;2023-08-08T14:27:56;3.35;;;1.38;;
51987;SDS011;38003;52.012;4.346;2023-08-08T14:30:26;3.65;;;1.30;;
51987;SDS011;38003;52.012;4.346;2023-08-08T14:32:54;3.28;;;1.40;;
51987;SDS011;38003;52.012;4.346;2023-08-08T14:35:23;3.10;;;1.30;;
51987;SDS011;38003;52.012;4.346;2023-08-08T14:37:51;3.03;;;1.40;;
51987;SDS011;38003;52.012;4.346;2023-08-08T14:40:19;2.95;;;1.42;;
51987;SDS011;38003;52.012;4.346;2023-08-08T14:42:47;5.10;;;1.60;;
51987;SDS011;38003;52.012;4.346;2023-08-08T14:45:17;4.07;;;1.52;;
51987;SDS011;38003;52.012;4.346;2023-08-08T14:47:48;4.43;;;1.50;;
51987;SDS011;38003;52.012;4.346;2023-08-08T14:50:17;4.65;;;1.50;;
51987;SDS011;38003;52.012;4.346;2023-08-08T14:52:46;5.55;;;1.50;;
51987;SDS011;38003;52.012;4.346;2023-08-08T14:55:14;5.03;;;1.40;;
51987;SDS011;38003;52.012;4.346;2023-08-08T14:57:43;3.58;;;1.42;;